sensor_id;sensor_type;location;lat;lon;timestamp;pressure;altitude;pressure_sealevel;temperature;humidity
10881;BME280;5493;48.884;8.338;2023-02-16T00:01:19;101390.97;;;2.10;100.00
10881;BME280;5493;48.884;8.338;2023-02-16T00:03:46;101404.28;;;2.10;100.00
10881;BME280;5493;48.884;8.338;2023-02-16T00:06:14;101407.78;;;2.20;100.00
10881;BME280;5493;48.884;8.338;2023-02-16T00:08:45;101399.69;;;2.31;100.00
10881;BME280;5493;48.884;8.338;2023-02-16T00:11:16;101397.22;;;1.89;100.00
10881;BME280;5493;48.884;8.338;2023-02-16T00:14:01;101399.81;;;2.29;100.00
10881;BME280;5493;48.884;8.338;2023-02-16T00:16:28;101400.81;;;2.38;100.00
10881;BME280;5493;48.884;8.338;2023-02-16T00:18:54;101397.72;;;2.23;100.00
10881;BME280;5493;48.884;8.338;2023-02-16T00:21:22;101395.47;;;2.19;100.00
10881;BME280;5493;48.884;8.338;2023-02-16T00:23:49;101382.28;;;2.17;100.00
10881;BME280;5493;48.884;8.338;2023-02-16T00:26:18;101381.16;;;2.10;100.00
10881;BME280;5493;48.884;8.338;2023-02-16T00:28:45;101373.06;;;2.12;100.00
10881;BME280;5493;48.884;8.338;2023-02-16T00:31:15;101368.41;;;1.94;100.00
10881;BME280;5493;48.884;8.338;2023-02-16T00:33:43;101374.59;;;1.95;100.00
10881;BME280;5493;48.884;8.338;2023-02-16T00:36:10;101385.34;;;2.03;100.00
10881;BME280;5493;48.884;8.338;2023-02-16T00:38:38;101389.16;;;1.61;100.00
10881;BME280;5493;48.884;8.338;2023-02-16T00:41:04;101390.50;;;1.85;100.00
10881;BME280;5493;48.884;8.338;2023-02-16T00:43:51;101408.97;;;1.87;100.00
10881;BME280;5493;48.884;8.338;2023-02-16T00:46:20;101408.31;;;1.94;100.00
10881;BME280;5493;48.884;8.338;2023-02-16T00:48:46;101406.63;;;1.93;100.00
10881;BME280;5493;48.884;8.338;2023-02-16T00:51:13;101397.50;;;1.96;100.00
10881;BME280;5493;48.884;8.338;2023-02-16T00:53:40;101389.13;;;2.01;100.00
10881;BME280;5493;48.884;8.338;2023-02-16T00:56:08;101394.28;;;1.83;100.00
10881;BME280;5493;48.884;8.338;2023-02-16T00:58:36;101398.34;;;1.87;100.00
10881;BME280;5493;48.884;8.338;2023-02-16T01:01:06;101407.47;;;1.94;100.00
10881;BME280;5493;48.884;8.338;2023-02-16T01:03:33;101403.50;;;1.79;100.00
10881;BME280;5493;48.884;8.338;2023-02-16T01:05:59;101404.81;;;1.94;100.00
10881;BME280;5493;48.884;8.338;2023-02-16T01:08:41;101411.66;;;1.96;100.00
10881;BME280;5493;48.884;8.338;2023-02-16T01:11:22;101402.25;;;1.83;100.00
10881;BME280;5493;48.884;8.338;2023-02-16T01:13:50;101411.19;;;1.82;100.00
10881;BME280;5493;48.884;8.338;2023-02-16T01:16:20;101399.09;;;1.98;100.00
10881;BME280;5493;48.884;8.338;2023-02-16T01:18:48;101392.59;;;1.82;100.00
10881;BME280;5493;48.884;8.338;2023-02-16T01:21:14;101400.72;;;1.90;100.00
10881;BME280;5493;48.884;8.338;2023-02-16T01:23:43;101402.00;;;1.95;100.00
10881;BME280;5493;48.884;8.338;2023-02-16T01:26:12;101387.88;;;1.95;100.00
10881;BME280;5493;48.884;8.338;2023-02-16T01:28:40;101388.69;;;1.95;100.00
10881;BME280;5493;48.884;8.338;2023-02-16T01:31:08;101382.91;;;1.71;100.00
10881;BME280;5493;48.884;8.338;2023-02-16T01:33:35;101386.03;;;1.86;100.00
10881;BME280;5493;48.884;8.338;2023-02-16T01:36:03;101395.53;;;1.79;100.00
10881;BME280;5493;48.884;8.338;2023-02-16T01:38:30;101374.81;;;1.73;100.00
10881;BME280;5493;48.884;8.338;2023-02-16T01:41:04;101383.56;;;1.64;100.00
10881;BME280;5493;48.884;8.338;2023-02-16T01:43:41;101381.50;;;1.67;100.00
10881;BME280;5493;48.884;8.338;2023-02-16T01:46:13;101381.94;;;1.82;100.00
10881;BME280;5493;48.884;8.338;2023-02-16T01:48:42;101386.81;;;1.67;100.00
10881;BME280;5493;48.884;8.338;2023-02-16T01:51:13;101383.19;;;1.68;100.00
10881;BME280;5493;48.884;8.338;2023-02-16T01:53:45;101382.78;;;1.73;100.00
10881;BME280;5493;48.884;8.338;2023-02-16T01:56:20;101386.03;;;1.46;100.00
10881;BME280;5493;48.884;8.338;2023-02-16T01:58:54;101389.25;;;1.49;100.00
10881;BME280;5493;48.884;8.338;2023-02-16T02:01:48;101400.16;;;1.77;100.00
10881;BME280;5493;48.884;8.338;2023-02-16T02:04:23;101401.00;;;1.87;100.00
10881;BME280;5493;48.884;8.338;2023-02-16T02:07:15;101396.75;;;1.75;100.00
10881;BME280;5493;48.884;8.338;2023-02-16T02:09:49;101398.06;;;1.80;100.00
10881;BME280;5493;48.884;8.338;2023-02-16T02:12:25;101401.56;;;1.81;100.00
10881;BME280;5493;48.884;8.338;2023-02-16T02:14:53;101398.16;;;1.69;100.00
10881;BME280;5493;48.884;8.338;2023-02-16T02:17:20;101397.03;;;1.62;100.00
10881;BME280;5493;48.884;8.338;2023-02-16T02:19:53;101390.09;;;1.50;100.00
10881;BME280;5493;48.884;8.338;2023-02-16T02:22:42;101389.34;;;1.69;100.00
10881;BME280;5493;48.884;8.338;2023-02-16T02:26:03;101380.41;;;1.70;100.00
10881;BME280;5493;48.884;8.338;2023-02-16T02:28:45;101371.56;;;1.69;100.00
10881;BME280;5493;48.884;8.338;2023-02-16T02:31:18;101369.34;;;1.74;100.00
10881;BME280;5493;48.884;8.338;2023-02-16T02:33:55;101372.72;;;1.76;100.00
10881;BME280;5493;48.884;8.338;2023-02-16T02:36:29;101358.56;;;1.76;100.00
10881;BME280;5493;48.884;8.338;2023-02-16T02:39:05;101360.09;;;1.69;100.00
10881;BME280;5493;48.884;8.338;2023-02-16T02:41:38;101344.44;;;1.75;100.00
10881;BME280;5493;48.884;8.338;2023-02-16T02:44:27;101344.38;;;1.46;100.00
10881;BME280;5493;48.884;8.338;2023-02-16T02:46:55;101337.81;;;1.51;100.00
10881;BME280;5493;48.884;8.338;2023-02-16T02:49:22;101328.41;;;1.46;100.00
10881;BME280;5493;48.884;8.338;2023-02-16T02:51:48;101340.00;;;1.45;100.00
10881;BME280;5493;48.884;8.338;2023-02-16T02:54:18;101341.50;;;1.29;100.00
10881;BME280;5493;48.884;8.338;2023-02-16T02:57:04;101342.66;;;1.45;100.00
10881;BME280;5493;48.884;8.338;2023-02-16T02:59:56;101340.88;;;1.56;100.00
10881;BME280;5493;48.884;8.338;2023-02-16T03:02:42;101341.06;;;1.24;100.00
10881;BME280;5493;48.884;8.338;2023-02-16T03:05:12;101352.03;;;1.40;100.00
10881;BME280;5493;48.884;8.338;2023-02-16T03:07:41;101345.59;;;1.42;100.00
10881;BME280;5493;48.884;8.338;2023-02-16T03:10:13;101353.56;;;1.33;100.00
10881;BME280;5493;48.884;8.338;2023-02-16T03:12:58;101349.09;;;1.33;100.00
10881;BME280;5493;48.884;8.338;2023-02-16T03:15:27;101347.19;;;1.55;100.00
10881;BME280;5493;48.884;8.338;2023-02-16T03:17:57;101344.06;;;1.40;100.00
10881;BME280;5493;48.884;8.338;2023-02-16T03:20:44;101342.41;;;1.48;100.00
10881;BME280;5493;48.884;8.338;2023-02-16T03:23:29;101347.25;;;1.34;100.00
10881;BME280;5493;48.884;8.338;2023-02-16T03:26:14;101342.28;;;1.50;100.00
10881;BME280;5493;48.884;8.338;2023-02-16T03:28:59;101339.63;;;1.60;100.00
10881;BME280;5493;48.884;8.338;2023-02-16T03:31:45;101355.53;;;1.40;100.00
10881;BME280;5493;48.884;8.338;2023-02-16T03:34:12;101355.53;;;1.40;100.00
10881;BME280;5493;48.884;8.338;2023-02-16T03:36:42;101355.56;;;1.50;100.00
10881;BME280;5493;48.884;8.338;2023-02-16T03:39:10;101365.16;;;1.32;100.00
10881;BME280;5493;48.884;8.338;2023-02-16T03:41:39;101367.59;;;1.14;100.00
10881;BME280;5493;48.884;8.338;2023-02-16T03:44:07;101368.38;;;1.35;100.00
10881;BME280;5493;48.884;8.338;2023-02-16T03:46:34;101366.06;;;1.52;100.00
10881;BME280;5493;48.884;8.338;2023-02-16T03:49:02;101356.53;;;1.49;100.00
10881;BME280;5493;48.884;8.338;2023-02-16T03:51:28;101356.06;;;1.34;100.00
10881;BME280;5493;48.884;8.338;2023-02-16T03:53:55;101351.22;;;1.49;100.00
10881;BME280;5493;48.884;8.338;2023-02-16T03:56:21;101350.41;;;1.58;100.00
10881;BME280;5493;48.884;8.338;2023-02-16T03:58:48;101340.22;;;1.63;100.00
10881;BME280;5493;48.884;8.338;2023-02-16T04:01:14;101338.66;;;1.61;100.00
10881;BME280;5493;48.884;8.338;2023-02-16T04:03:41;101337.41;;;1.65;100.00
10881;BME280;5493;48.884;8.338;2023-02-16T04:06:09;101343.66;;;1.44;100.00
10881;BME280;5493;48.884;8.338;2023-02-16T04:08:36;101347.16;;;1.45;100.00
10881;BME280;5493;48.884;8.338;2023-02-16T04:11:02;101351.88;;;1.41;100.00
10881;BME280;5493;48.884;8.338;2023-02-16T04:13:50;101353.75;;;1.20;100.00
10881;BME280;5493;48.884;8.338;2023-02-16T04:16:15;101358.41;;;1.28;100.00
10881;BME280;5493;48.884;8.338;2023-02-16T04:18:42;101358.56;;;1.26;100.00
10881;BME280;5493;48.884;8.338;2023-02-16T04:21:10;101357.44;;;1.29;100.00
10881;BME280;5493;48.884;8.338;2023-02-16T04:23:36;101358.09;;;1.52;100.00
10881;BME280;5493;48.884;8.338;2023-02-16T04:26:03;101350.84;;;1.23;100.00
10881;BME280;5493;48.884;8.338;2023-02-16T04:28:29;101358.56;;;1.26;100.00
10881;BME280;5493;48.884;8.338;2023-02-16T04:30:56;101366.94;;;1.31;100.00
10881;BME280;5493;48.884;8.338;2023-02-16T04:33:22;101357.16;;;1.32;100.00
10881;BME280;5493;48.884;8.338;2023-02-16T04:35:49;101357.09;;;1.43;100.00
10881;BME280;5493;48.884;8.338;2023-02-16T04:38:17;101352.06;;;1.49;100.00
10881;BME280;5493;48.884;8.338;2023-02-16T04:40:43;101348.97;;;1.44;100.00
10881;BME280;5493;48.884;8.338;2023-02-16T04:43:10;101360.13;;;1.38;100.00
10881;BME280;5493;48.884;8.338;2023-02-16T04:45:36;101367.88;;;1.51;100.00
10881;BME280;5493;48.884;8.338;2023-02-16T04:48:03;101364.19;;;1.33;100.00
10881;BME280;5493;48.884;8.338;2023-02-16T04:50:30;101359.22;;;1.19;100.00
10881;BME280;5493;48.884;8.338;2023-02-16T04:52:56;101357.16;;;1.02;100.00
10881;BME280;5493;48.884;8.338;2023-02-16T04:55:24;101361.91;;;0.98;100.00
10881;BME280;5493;48.884;8.338;2023-02-16T04:57:51;101363.59;;;0.99;100.00
10881;BME280;5493;48.884;8.338;2023-02-16T05:00:18;101359.19;;;0.88;100.00
10881;BME280;5493;48.884;8.338;2023-02-16T05:02:45;101372.00;;;0.83;100.00
10881;BME280;5493;48.884;8.338;2023-02-16T05:05:11;101368.50;;;0.62;100.00
10881;BME280;5493;48.884;8.338;2023-02-16T05:07:38;101367.38;;;0.76;100.00
10881;BME280;5493;48.884;8.338;2023-02-16T05:10:06;101354.16;;;0.85;100.00
10881;BME280;5493;48.884;8.338;2023-02-16T05:12:34;101349.69;;;0.86;100.00
10881;BME280;5493;48.884;8.338;2023-02-16T05:15:18;101343.13;;;0.69;100.00
10881;BME280;5493;48.884;8.338;2023-02-16T05:17:44;101348.13;;;0.83;100.00
10881;BME280;5493;48.884;8.338;2023-02-16T05:20:12;101345.56;;;0.72;100.00
10881;BME280;5493;48.884;8.338;2023-02-16T05:22:38;101345.88;;;0.79;100.00
10881;BME280;5493;48.884;8.338;2023-02-16T05:25:05;101347.47;;;0.91;100.00
10881;BME280;5493;48.884;8.338;2023-02-16T05:27:33;101356.16;;;0.93;100.00
10881;BME280;5493;48.884;8.338;2023-02-16T05:30:00;101354.22;;;0.74;100.00
10881;BME280;5493;48.884;8.338;2023-02-16T05:32:26;101354.91;;;0.76;100.00
10881;BME280;5493;48.884;8.338;2023-02-16T05:34:53;101353.38;;;0.74;100.00
10881;BME280;5493;48.884;8.338;2023-02-16T05:37:19;101364.88;;;0.84;100.00
10881;BME280;5493;48.884;8.338;2023-02-16T05:39:46;101357.78;;;0.64;100.00
10881;BME280;5493;48.884;8.338;2023-02-16T05:42:12;101363.41;;;0.49;100.00
10881;BME280;5493;48.884;8.338;2023-02-16T05:44:40;101356.41;;;0.48;100.00
10881;BME280;5493;48.884;8.338;2023-02-16T05:47:07;101352.81;;;0.49;100.00
10881;BME280;5493;48.884;8.338;2023-02-16T05:49:33;101353.06;;;0.46;100.00
10881;BME280;5493;48.884;8.338;2023-02-16T05:52:00;101351.94;;;0.70;100.00
10881;BME280;5493;48.884;8.338;2023-02-16T05:54:26;101357.97;;;0.92;100.00
10881;BME280;5493;48.884;8.338;2023-02-16T05:56:53;101369.81;;;0.88;100.00
10881;BME280;5493;48.884;8.338;2023-02-16T05:59:19;101371.44;;;0.80;100.00
10881;BME280;5493;48.884;8.338;2023-02-16T06:01:47;101364.88;;;0.84;100.00
10881;BME280;5493;48.884;8.338;2023-02-16T06:04:14;101376.63;;;0.81;100.00
10881;BME280;5493;48.884;8.338;2023-02-16T06:06:40;101375.34;;;0.76;100.00
10881;BME280;5493;48.884;8.338;2023-02-16T06:09:08;101371.44;;;0.80;100.00
10881;BME280;5493;48.884;8.338;2023-02-16T06:11:35;101377.72;;;0.79;100.00
10881;BME280;5493;48.884;8.338;2023-02-16T06:14:03;101374.28;;;0.67;100.00
10881;BME280;5493;48.884;8.338;2023-02-16T06:16:31;101367.75;;;0.51;100.00
10881;BME280;5493;48.884;8.338;2023-02-16T06:18:59;101355.91;;;0.75;100.00
10881;BME280;5493;48.884;8.338;2023-02-16T06:21:26;101360.75;;;0.91;100.00
10881;BME280;5493;48.884;8.338;2023-02-16T06:23:53;101358.09;;;0.70;100.00
10881;BME280;5493;48.884;8.338;2023-02-16T06:26:20;101358.03;;;0.61;100.00
10881;BME280;5493;48.884;8.338;2023-02-16T06:28:47;101361.72;;;0.69;100.00
10881;BME280;5493;48.884;8.338;2023-02-16T06:31:13;101371.69;;;0.97;100.00
10881;BME280;5493;48.884;8.338;2023-02-16T06:33:40;101371.75;;;0.66;100.00
10881;BME280;5493;48.884;8.338;2023-02-16T06:36:09;101374.03;;;0.18;100.00
10881;BME280;5493;48.884;8.338;2023-02-16T06:38:36;101377.28;;;0.21;100.00
10881;BME280;5493;48.884;8.338;2023-02-16T06:41:03;101381.25;;;0.47;100.00
10881;BME280;5493;48.884;8.338;2023-02-16T06:43:29;101369.69;;;0.48;100.00
10881;BME280;5493;48.884;8.338;2023-02-16T06:45:56;101376.88;;;0.58;100.00
10881;BME280;5493;48.884;8.338;2023-02-16T06:48:22;101373.56;;;0.65;100.00
10881;BME280;5493;48.884;8.338;2023-02-16T06:50:50;101376.75;;;0.59;100.00
10881;BME280;5493;48.884;8.338;2023-02-16T06:53:18;101392.66;;;0.59;100.00
10881;BME280;5493;48.884;8.338;2023-02-16T06:55:44;101392.47;;;0.19;100.00
10881;BME280;5493;48.884;8.338;2023-02-16T06:58:11;101399.56;;;0.19;100.00
10881;BME280;5493;48.884;8.338;2023-02-16T07:00:38;101400.00;;;0.35;100.00
10881;BME280;5493;48.884;8.338;2023-02-16T07:03:04;101402.91;;;0.00;100.00
10881;BME280;5493;48.884;8.338;2023-02-16T07:05:31;101409.44;;;0.28;100.00
10881;BME280;5493;48.884;8.338;2023-02-16T07:07:57;101406.44;;;0.53;100.00
10881;BME280;5493;48.884;8.338;2023-02-16T07:10:25;101400.72;;;0.37;100.00
10881;BME280;5493;48.884;8.338;2023-02-16T07:12:52;101410.56;;;0.46;100.00
10881;BME280;5493;48.884;8.338;2023-02-16T07:15:18;101405.34;;;0.56;100.00
10881;BME280;5493;48.884;8.338;2023-02-16T07:17:45;101413.84;;;0.70;100.00
10881;BME280;5493;48.884;8.338;2023-02-16T07:20:12;101402.84;;;0.54;100.00
10881;BME280;5493;48.884;8.338;2023-02-16T07:22:38;101400.88;;;0.56;100.00
10881;BME280;5493;48.884;8.338;2023-02-16T07:25:05;101397.00;;;0.60;100.00
10881;BME280;5493;48.884;8.338;2023-02-16T09:05:59;101424.88;;;3.04;100.00
10881;BME280;5493;48.884;8.338;2023-02-16T09:08:27;101436.75;;;3.19;100.00
10881;BME280;5493;48.884;8.338;2023-02-16T09:10:54;101438.00;;;3.24;100.00
10881;BME280;5493;48.884;8.338;2023-02-16T09:13:20;101431.97;;;3.32;100.00
10881;BME280;5493;48.884;8.338;2023-02-16T09:15:48;101423.97;;;3.32;100.00
10881;BME280;5493;48.884;8.338;2023-02-16T09:18:14;101419.84;;;3.47;100.00
10881;BME280;5493;48.884;8.338;2023-02-16T09:20:42;101419.06;;;3.64;100.00
10881;BME280;5493;48.884;8.338;2023-02-16T09:23:10;101418.41;;;3.80;100.00
10881;BME280;5493;48.884;8.338;2023-02-16T09:25:39;101421.69;;;3.74;100.00
10881;BME280;5493;48.884;8.338;2023-02-16T09:28:06;101421.44;;;3.94;100.00
10881;BME280;5493;48.884;8.338;2023-02-16T09:30:36;101428.25;;;4.07;100.00
10881;BME280;5493;48.884;8.338;2023-02-16T09:33:03;101429.19;;;4.15;100.00
10881;BME280;5493;48.884;8.338;2023-02-16T09:35:30;101423.31;;;4.12;100.00
10881;BME280;5493;48.884;8.338;2023-02-16T09:37:57;101438.38;;;4.30;100.00
10881;BME280;5493;48.884;8.338;2023-02-16T09:40:25;101431.06;;;4.50;100.00
10881;BME280;5493;48.884;8.338;2023-02-16T09:42:59;101420.38;;;4.50;100.00
10881;BME280;5493;48.884;8.338;2023-02-16T09:45:30;101422.44;;;4.74;100.00
10881;BME280;5493;48.884;8.338;2023-02-16T09:47:59;101418.66;;;5.02;100.00
10881;BME280;5493;48.884;8.338;2023-02-16T09:50:28;101408.69;;;5.12;100.00
10881;BME280;5493;48.884;8.338;2023-02-16T09:52:57;101410.16;;;5.32;100.00
10881;BME280;5493;48.884;8.338;2023-02-16T09:55:31;101402.38;;;5.47;100.00
10881;BME280;5493;48.884;8.338;2023-02-16T09:58:10;101406.59;;;5.50;100.00
10881;BME280;5493;48.884;8.338;2023-02-16T10:00:48;101404.69;;;5.68;100.00
10881;BME280;5493;48.884;8.338;2023-02-16T10:03:27;101410.94;;;5.84;100.00
10881;BME280;5493;48.884;8.338;2023-02-16T10:06:02;101405.66;;;5.92;100.00
10881;BME280;5493;48.884;8.338;2023-02-16T10:08:35;101408.31;;;6.01;100.00
10881;BME280;5493;48.884;8.338;2023-02-16T10:11:10;101412.44;;;6.29;100.00
10881;BME280;5493;48.884;8.338;2023-02-16T10:13:56;101402.56;;;6.37;100.00
10881;BME280;5493;48.884;8.338;2023-02-16T10:16:29;101399.44;;;6.58;100.00
10881;BME280;5493;48.884;8.338;2023-02-16T10:18:57;101401.09;;;6.67;100.00
10881;BME280;5493;48.884;8.338;2023-02-16T10:21:27;101391.41;;;6.58;100.00
10881;BME280;5493;48.884;8.338;2023-02-16T10:23:59;101395.06;;;6.81;100.00
10881;BME280;5493;48.884;8.338;2023-02-16T10:26:31;101378.66;;;6.92;100.00
10881;BME280;5493;48.884;8.338;2023-02-16T10:29:02;101379.78;;;7.06;100.00
10881;BME280;5493;48.884;8.338;2023-02-16T10:31:37;101373.91;;;7.19;100.00
10881;BME280;5493;48.884;8.338;2023-02-16T10:34:18;101372.38;;;7.24;100.00
10881;BME280;5493;48.884;8.338;2023-02-16T10:37:02;101367.97;;;7.48;100.00
10881;BME280;5493;48.884;8.338;2023-02-16T10:39:38;101362.41;;;7.57;100.00
10881;BME280;5493;48.884;8.338;2023-02-16T10:42:16;101364.53;;;7.70;100.00
10881;BME280;5493;48.884;8.338;2023-02-16T10:44:50;101357.69;;;7.98;100.00
10881;BME280;5493;48.884;8.338;2023-02-16T10:47:28;101363.34;;;8.03;100.00
10881;BME280;5493;48.884;8.338;2023-02-16T10:49:57;101355.72;;;8.15;100.00
10881;BME280;5493;48.884;8.338;2023-02-16T10:52:24;101358.94;;;8.41;100.00
10881;BME280;5493;48.884;8.338;2023-02-16T10:54:53;101354.47;;;8.56;100.00
10881;BME280;5493;48.884;8.338;2023-02-16T10:57:24;101356.06;;;8.65;100.00
10881;BME280;5493;48.884;8.338;2023-02-16T10:59:52;101352.22;;;8.97;100.00
10881;BME280;5493;48.884;8.338;2023-02-16T11:02:23;101352.22;;;8.97;100.00
10881;BME280;5493;48.884;8.338;2023-02-16T11:04:51;101350.88;;;9.30;100.00
10881;BME280;5493;48.884;8.338;2023-02-16T11:07:20;101344.78;;;9.51;100.00
10881;BME280;5493;48.884;8.338;2023-02-16T11:09:48;101342.03;;;9.66;100.00
10881;BME280;5493;48.884;8.338;2023-02-16T11:12:26;101336.44;;;9.97;100.00
10881;BME280;5493;48.884;8.338;2023-02-16T11:14:55;101333.84;;;10.24;100.00
10881;BME280;5493;48.884;8.338;2023-02-16T11:17:23;101339.78;;;10.34;100.00
10881;BME280;5493;48.884;8.338;2023-02-16T11:19:53;101333.34;;;10.35;100.00
10881;BME280;5493;48.884;8.338;2023-02-16T11:22:27;101328.03;;;10.63;100.00
10881;BME280;5493;48.884;8.338;2023-02-16T11:24:53;101324.19;;;10.79;100.00
10881;BME280;5493;48.884;8.338;2023-02-16T11:27:22;101322.25;;;10.94;100.00
10881;BME280;5493;48.884;8.338;2023-02-16T11:29:50;101308.19;;;11.05;100.00
10881;BME280;5493;48.884;8.338;2023-02-16T11:32:39;101312.94;;;11.31;100.00
10881;BME280;5493;48.884;8.338;2023-02-16T11:35:08;101314.22;;;11.35;100.00
10881;BME280;5493;48.884;8.338;2023-02-16T11:37:34;101312.13;;;11.71;100.00
10881;BME280;5493;48.884;8.338;2023-02-16T11:40:04;101305.00;;;12.24;100.00
10881;BME280;5493;48.884;8.338;2023-02-16T11:42:37;101301.91;;;12.47;100.00
10881;BME280;5493;48.884;8.338;2023-02-16T11:45:07;101294.00;;;12.46;100.00
10881;BME280;5493;48.884;8.338;2023-02-16T11:47:36;101291.91;;;12.34;100.00
10881;BME280;5493;48.884;8.338;2023-02-16T11:50:19;101292.31;;;12.38;100.00
10881;BME280;5493;48.884;8.338;2023-02-16T11:52:48;101283.38;;;12.90;100.00
10881;BME280;5493;48.884;8.338;2023-02-16T11:55:21;101277.66;;;13.38;100.00
10881;BME280;5493;48.884;8.338;2023-02-16T11:57:48;101276.13;;;13.55;100.00
10881;BME280;5493;48.884;8.338;2023-02-16T12:00:17;101267.81;;;13.94;100.00
10881;BME280;5493;48.884;8.338;2023-02-16T12:03:08;101249.44;;;13.58;100.00
10881;BME280;5493;48.884;8.338;2023-02-16T12:05:49;101250.78;;;13.80;100.00
10881;BME280;5493;48.884;8.338;2023-02-16T12:08:26;101252.97;;;14.35;100.00
10881;BME280;5493;48.884;8.338;2023-02-16T12:11:07;101242.66;;;14.68;100.00
10881;BME280;5493;48.884;8.338;2023-02-16T12:13:42;101240.88;;;14.98;100.00
10881;BME280;5493;48.884;8.338;2023-02-16T12:16:22;101224.19;;;14.76;100.00
10881;BME280;5493;48.884;8.338;2023-02-16T12:19:01;101227.38;;;14.92;100.00
10881;BME280;5493;48.884;8.338;2023-02-16T12:21:36;101224.47;;;15.30;100.00
10881;BME280;5493;48.884;8.338;2023-02-16T12:24:14;101216.59;;;15.21;100.00
10881;BME280;5493;48.884;8.338;2023-02-16T12:26:48;101230.19;;;15.03;100.00
10881;BME280;5493;48.884;8.338;2023-02-16T12:29:25;101235.13;;;14.70;100.00
10881;BME280;5493;48.884;8.338;2023-02-16T12:34:54;101228.72;;;14.33;100.00
10881;BME280;5493;48.884;8.338;2023-02-16T12:37:32;101226.25;;;14.00;100.00
10881;BME280;5493;48.884;8.338;2023-02-16T12:40:08;101218.63;;;14.15;100.00
10881;BME280;5493;48.884;8.338;2023-02-16T12:42:43;101220.56;;;13.77;100.00
10881;BME280;5493;48.884;8.338;2023-02-16T12:45:17;101220.38;;;13.72;100.00
10881;BME280;5493;48.884;8.338;2023-02-16T12:47:46;101217.78;;;13.90;100.00
10881;BME280;5493;48.884;8.338;2023-02-16T12:50:19;101208.06;;;14.07;100.00
10881;BME280;5493;48.884;8.338;2023-02-16T12:52:51;101208.75;;;14.52;100.00
10881;BME280;5493;48.884;8.338;2023-02-16T12:55:22;101214.91;;;14.84;100.00
10881;BME280;5493;48.884;8.338;2023-02-16T12:57:57;101205.38;;;15.00;100.00
10881;BME280;5493;48.884;8.338;2023-02-16T13:00:34;101195.44;;;15.90;100.00
10881;BME280;5493;48.884;8.338;2023-02-16T13:03:10;101195.72;;;16.11;100.00
10881;BME280;5493;48.884;8.338;2023-02-16T13:05:41;101194.53;;;15.77;100.00
10881;BME280;5493;48.884;8.338;2023-02-16T13:08:14;101188.38;;;16.12;100.00
10881;BME280;5493;48.884;8.338;2023-02-16T13:10:51;101184.75;;;16.30;100.00
10881;BME280;5493;48.884;8.338;2023-02-16T13:13:23;101179.53;;;16.40;100.00
10881;BME280;5493;48.884;8.338;2023-02-16T13:15:53;101182.50;;;16.96;100.00
10881;BME280;5493;48.884;8.338;2023-02-16T13:18:25;101175.66;;;16.70;100.00
10881;BME280;5493;48.884;8.338;2023-02-16T13:20:57;101173.16;;;16.81;100.00
10881;BME280;5493;48.884;8.338;2023-02-16T13:23:53;101176.25;;;17.36;100.00
10881;BME280;5493;48.884;8.338;2023-02-16T13:32:49;101169.50;;;16.52;100.00
10881;BME280;5493;48.884;8.338;2023-02-16T13:35:32;101171.16;;;16.41;100.00
10881;BME280;5493;48.884;8.338;2023-02-16T13:38:14;101169.00;;;16.32;100.00
10881;BME280;5493;48.884;8.338;2023-02-16T13:41:08;101165.00;;;16.46;100.00
10881;BME280;5493;48.884;8.338;2023-02-16T13:43:39;101163.72;;;16.60;100.00
10881;BME280;5493;48.884;8.338;2023-02-16T13:46:14;101156.00;;;16.45;100.00
10881;BME280;5493;48.884;8.338;2023-02-16T13:48:46;101160.84;;;16.20;100.00
10881;BME280;5493;48.884;8.338;2023-02-16T13:51:15;101159.91;;;15.73;100.00
10881;BME280;5493;48.884;8.338;2023-02-16T13:53:50;101164.25;;;16.15;100.00
10881;BME280;5493;48.884;8.338;2023-02-16T13:56:23;101158.47;;;16.12;100.00
10881;BME280;5493;48.884;8.338;2023-02-16T13:58:58;101160.34;;;16.11;98.80
10881;BME280;5493;48.884;8.338;2023-02-16T14:01:36;101140.28;;;15.71;94.11
10881;BME280;5493;48.884;8.338;2023-02-16T14:04:05;101147.19;;;15.97;97.17
10881;BME280;5493;48.884;8.338;2023-02-16T14:06:34;101149.47;;;16.11;97.50
10881;BME280;5493;48.884;8.338;2023-02-16T14:09:43;101149.34;;;16.30;93.28
10881;BME280;5493;48.884;8.338;2023-02-16T14:12:18;101140.91;;;15.96;90.96
10881;BME280;5493;48.884;8.338;2023-02-16T14:14:56;101133.44;;;15.80;91.47
10881;BME280;5493;48.884;8.338;2023-02-16T14:17:29;101135.53;;;15.66;93.79
10881;BME280;5493;48.884;8.338;2023-02-16T14:19:58;101123.34;;;15.57;92.57
10881;BME280;5493;48.884;8.338;2023-02-16T14:22:37;101126.00;;;15.87;93.98
10881;BME280;5493;48.884;8.338;2023-02-16T14:25:29;101129.94;;;15.91;94.64
10881;BME280;5493;48.884;8.338;2023-02-16T14:28:00;101128.38;;;16.07;97.19
10881;BME280;5493;48.884;8.338;2023-02-16T14:30:30;101129.47;;;15.94;98.01
10881;BME280;5493;48.884;8.338;2023-02-16T14:33:00;101121.88;;;15.96;97.03
10881;BME280;5493;48.884;8.338;2023-02-16T14:35:32;101120.41;;;15.70;97.33
10881;BME280;5493;48.884;8.338;2023-02-16T14:38:01;101122.41;;;15.45;98.35
10881;BME280;5493;48.884;8.338;2023-02-16T14:40:50;101111.88;;;15.55;96.54
10881;BME280;5493;48.884;8.338;2023-02-16T14:43:24;101111.03;;;15.55;96.34
10881;BME280;5493;48.884;8.338;2023-02-16T14:46:25;101104.84;;;15.48;96.46
10881;BME280;5493;48.884;8.338;2023-02-16T14:49:17;101093.00;;;15.42;98.18
10881;BME280;5493;48.884;8.338;2023-02-16T14:52:06;101099.41;;;15.48;99.85
10881;BME280;5493;48.884;8.338;2023-02-16T14:57:46;101107.47;;;15.24;100.00
10881;BME280;5493;48.884;8.338;2023-02-16T15:00:24;101114.84;;;15.36;100.00
10881;BME280;5493;48.884;8.338;2023-02-16T15:02:56;101113.03;;;15.30;100.00
10881;BME280;5493;48.884;8.338;2023-02-16T15:05:26;101109.59;;;15.22;100.00
10881;BME280;5493;48.884;8.338;2023-02-16T15:08:00;101109.44;;;15.17;100.00
10881;BME280;5493;48.884;8.338;2023-02-16T15:10:29;101102.50;;;15.21;100.00
10881;BME280;5493;48.884;8.338;2023-02-16T15:12:56;101098.78;;;15.16;100.00